createdAt,value
2019-01-28T00:01:39.348Z,85.41
2019-01-28T00:04:08.929Z,84.93
2019-01-28T00:06:38.457Z,84.33
2019-01-28T00:09:08.473Z,84.27
2019-01-28T00:11:37.886Z,84.10
2019-01-28T00:14:07.978Z,84.42
2019-01-28T00:16:37.586Z,83.93
2019-01-28T00:19:06.969Z,84.63
2019-01-28T00:21:36.463Z,84.47
2019-01-28T00:24:06.034Z,84.46
2019-01-28T00:26:35.563Z,83.04
2019-01-28T00:29:05.358Z,82.79
2019-01-28T00:31:34.815Z,81.67
2019-01-28T00:34:04.602Z,81.97
2019-01-28T00:36:35.691Z,81.07
2019-01-28T00:39:08.807Z,80.04
2019-01-28T00:41:38.272Z,79.75
2019-01-28T00:44:07.843Z,80.20
2019-01-28T00:46:37.315Z,79.85
2019-01-28T00:49:06.769Z,79.42
2019-01-28T00:51:36.254Z,79.13
2019-01-28T00:54:05.793Z,79.17
2019-01-28T00:56:35.375Z,78.95
2019-01-28T00:59:04.845Z,79.19
2019-01-28T01:01:34.339Z,78.89
2019-01-28T01:04:04.092Z,79.31
2019-01-28T01:06:33.579Z,79.14
2019-01-28T01:09:04.774Z,79.13
2019-01-28T01:11:34.226Z,79.60
2019-01-28T01:14:03.708Z,78.79
2019-01-28T01:16:33.171Z,78.06
2019-01-28T01:19:02.661Z,78.58
2019-01-28T01:21:32.119Z,78.52
2019-01-28T01:24:01.598Z,78.99
2019-01-28T01:26:31.057Z,78.73
2019-01-28T01:29:00.577Z,78.71
2019-01-28T01:31:30.041Z,79.26
2019-01-28T01:33:59.516Z,79.87
2019-01-28T01:36:29.175Z,79.41
2019-01-28T01:38:58.780Z,79.14
2019-01-28T01:41:28.276Z,79.04
2019-01-28T01:43:57.734Z,79.08
2019-01-28T01:46:27.205Z,79.63
2019-01-28T01:48:56.696Z,79.66
2019-01-28T01:51:26.158Z,79.56
2019-01-28T01:53:55.655Z,79.38
2019-01-28T01:56:25.128Z,79.27
2019-01-28T01:58:55.040Z,78.52
2019-01-28T02:01:24.630Z,78.16
2019-01-28T02:03:54.145Z,77.92
2019-01-28T02:06:23.630Z,77.20
2019-01-28T02:08:53.183Z,77.26
2019-01-28T02:11:22.681Z,76.93
2019-01-28T02:13:52.186Z,76.53
2019-01-28T02:16:21.689Z,76.37
2019-01-28T02:18:51.140Z,75.90
2019-01-28T02:21:20.656Z,75.83
2019-01-28T02:23:50.234Z,76.45
2019-01-28T02:26:19.709Z,75.81
2019-01-28T02:28:49.208Z,76.30
2019-01-28T02:31:18.680Z,76.17
2019-01-28T02:33:48.219Z,75.67
2019-01-28T02:36:17.672Z,75.71
2019-01-28T02:38:47.178Z,75.68
2019-01-28T02:41:16.727Z,75.60
2019-01-28T02:43:46.235Z,75.61
2019-01-28T02:46:15.883Z,75.12
2019-01-28T02:48:45.391Z,75.53
2019-01-28T02:51:14.869Z,75.58
2019-01-28T02:53:44.330Z,75.55
2019-01-28T02:56:13.826Z,75.64
2019-01-28T02:58:43.294Z,75.48
2019-01-28T03:01:12.798Z,75.37
2019-01-28T03:03:42.258Z,74.90
2019-01-28T03:06:11.938Z,75.61
2019-01-28T03:08:41.502Z,75.25
2019-01-28T03:11:10.995Z,75.31
2019-01-28T03:13:40.500Z,75.14
2019-01-28T03:16:10.003Z,74.95
2019-01-28T03:18:39.469Z,75.00
2019-01-28T03:21:09.008Z,74.63
2019-01-28T03:23:38.636Z,75.00
2019-01-28T03:26:08.593Z,75.49
2019-01-28T03:28:38.073Z,75.24
2019-01-28T03:31:07.533Z,74.52
2019-01-28T03:33:37.033Z,74.93
2019-01-28T03:36:06.603Z,74.73
2019-01-28T03:38:36.071Z,74.47
2019-01-28T03:41:05.658Z,74.61
2019-01-28T03:43:35.162Z,74.67
2019-01-28T03:46:04.910Z,73.95
2019-01-28T03:48:34.380Z,73.64
2019-01-28T03:51:03.867Z,73.50
2019-01-28T03:53:33.730Z,73.54
2019-01-28T03:56:03.181Z,73.98
2019-01-28T03:58:32.880Z,73.46
2019-01-28T04:01:02.329Z,73.21
2019-01-28T04:03:31.832Z,73.60
2019-01-28T04:06:01.310Z,73.01
2019-01-28T04:08:30.816Z,71.84
2019-01-28T04:11:00.410Z,70.67
2019-01-28T04:13:29.914Z,69.26
2019-01-28T04:15:59.486Z,68.88
2019-01-28T04:18:28.958Z,68.21
2019-01-28T04:20:58.438Z,68.75
2019-01-28T04:23:27.890Z,68.96
2019-01-28T04:25:57.399Z,69.51
2019-01-28T04:28:26.850Z,69.78
2019-01-28T04:30:56.409Z,70.52
2019-01-28T04:33:25.848Z,70.70
2019-01-28T04:35:55.420Z,71.25
2019-01-28T04:38:25.044Z,71.79
2019-01-28T04:40:54.515Z,69.22
2019-01-28T04:43:24.825Z,69.87
2019-01-28T04:45:54.322Z,69.61
2019-01-28T04:48:23.813Z,70.00
2019-01-28T04:50:53.275Z,69.89
2019-01-28T04:53:22.750Z,69.08
2019-01-28T04:55:52.369Z,68.81
2019-01-28T04:58:21.827Z,68.43
2019-01-28T05:00:51.344Z,68.72
2019-01-28T05:03:20.806Z,69.19
2019-01-28T05:05:50.262Z,68.88
2019-01-28T05:08:19.773Z,69.19
2019-01-28T05:10:49.224Z,69.54
2019-01-28T05:13:18.858Z,69.31
2019-01-28T05:15:48.316Z,70.30
2019-01-28T05:18:18.034Z,70.22
2019-01-28T05:20:47.526Z,70.48
2019-01-28T05:23:17.073Z,70.03
2019-01-28T05:25:46.629Z,70.38
2019-01-28T05:28:16.095Z,69.96
2019-01-28T05:30:45.580Z,69.99
2019-01-28T05:33:15.052Z,70.41
2019-01-28T05:35:44.719Z,69.79
2019-01-28T05:38:14.168Z,69.95
2019-01-28T05:40:43.657Z,69.50
2019-01-28T05:43:13.212Z,70.14
2019-01-28T05:45:42.702Z,70.30
2019-01-28T05:48:12.197Z,70.81
2019-01-28T05:50:41.605Z,70.46
2019-01-28T05:53:11.275Z,69.69
2019-01-28T05:55:40.748Z,70.01
2019-01-28T05:58:10.402Z,70.33
2019-01-28T06:00:45.877Z,70.83
2019-01-28T06:03:15.474Z,70.78
2019-01-28T06:05:45.265Z,70.72
2019-01-28T06:08:14.728Z,71.55
2019-01-28T06:10:44.462Z,71.84
2019-01-28T06:13:14.174Z,71.38
2019-01-28T06:15:43.701Z,72.22
2019-01-28T06:18:13.180Z,72.24
2019-01-28T06:20:42.706Z,72.29
2019-01-28T06:23:12.170Z,71.64
2019-01-28T06:25:41.758Z,71.98
2019-01-28T06:28:11.220Z,72.14
2019-01-28T06:30:40.722Z,72.67
2019-01-28T06:33:10.197Z,72.33
2019-01-28T06:35:39.846Z,72.19
2019-01-28T06:38:09.453Z,71.44
2019-01-28T06:40:39.225Z,71.75
2019-01-28T06:43:08.890Z,70.70
2019-01-28T06:45:38.362Z,71.59
2019-01-28T06:48:07.989Z,70.35
2019-01-28T06:50:37.847Z,71.25
2019-01-28T06:53:07.502Z,71.23
2019-01-28T06:55:36.971Z,71.28
2019-01-28T06:58:06.474Z,71.29
2019-01-28T07:00:37.396Z,71.11
2019-01-28T07:03:08.312Z,70.59
2019-01-28T07:05:37.799Z,70.31
2019-01-28T07:08:07.414Z,70.65
2019-01-28T07:10:36.896Z,71.30
2019-01-28T07:13:06.889Z,70.38
2019-01-28T07:15:36.510Z,70.74
2019-01-28T07:18:06.223Z,71.00
2019-01-28T07:20:35.787Z,70.15
2019-01-28T07:23:05.450Z,70.83
2019-01-28T07:25:34.980Z,70.90
2019-01-28T07:28:04.847Z,71.08
2019-01-28T07:30:36.455Z,70.95
2019-01-28T07:33:06.719Z,71.05
2019-01-28T07:35:36.354Z,71.13
2019-01-28T07:38:06.735Z,70.55
2019-01-28T07:40:36.313Z,70.93
2019-01-28T07:43:05.778Z,71.32
2019-01-28T07:45:45.145Z,71.73
2019-01-28T07:48:09.003Z,70.95
2019-01-28T07:50:38.506Z,70.92
2019-01-28T07:53:07.981Z,71.65
2019-01-28T07:55:37.507Z,71.04
2019-01-28T07:58:07.205Z,71.55
2019-01-28T08:00:36.677Z,71.33
2019-01-28T08:03:07.333Z,71.24
2019-01-28T08:05:36.817Z,70.99
2019-01-28T08:08:07.023Z,71.40
2019-01-28T08:10:36.452Z,70.99
2019-01-28T08:13:06.774Z,71.66
2019-01-28T08:15:36.479Z,70.69
2019-01-28T08:18:10.981Z,71.67
2019-01-28T08:20:38.114Z,72.02
2019-01-28T08:23:07.775Z,72.20
2019-01-28T08:25:37.279Z,71.36
2019-01-28T08:28:06.944Z,70.93
2019-01-28T08:30:38.243Z,71.05
2019-01-28T08:33:07.801Z,71.40
2019-01-28T08:35:38.537Z,70.67
2019-01-28T08:38:08.319Z,70.08
2019-01-28T08:40:37.896Z,70.48
2019-01-28T08:43:07.474Z,70.51
2019-01-28T08:45:37.169Z,71.04
2019-01-28T08:48:07.191Z,70.83
2019-01-28T08:50:36.920Z,70.95
2019-01-28T08:53:06.791Z,69.88
2019-01-28T08:55:36.590Z,69.81
2019-01-28T08:58:06.603Z,70.35
2019-01-28T09:00:38.481Z,70.08
2019-01-28T09:03:08.601Z,71.01
2019-01-28T09:05:38.514Z,71.02
2019-01-28T09:08:09.344Z,70.96
2019-01-28T09:10:39.537Z,70.74
2019-01-28T09:13:09.805Z,70.76
2019-01-28T09:15:39.709Z,71.69
2019-01-28T09:18:10.997Z,71.27
2019-01-28T09:20:41.035Z,71.27
2019-01-28T09:23:10.852Z,71.36
2019-01-28T09:25:40.911Z,70.80
2019-01-28T09:28:10.817Z,70.96
2019-01-28T09:30:40.491Z,71.05
2019-01-28T09:33:10.419Z,71.02
2019-01-28T09:35:40.199Z,70.62
2019-01-28T09:38:10.073Z,70.21
2019-01-28T09:40:40.008Z,70.54
2019-01-28T09:43:09.665Z,70.01
2019-01-28T09:45:41.398Z,71.23
2019-01-28T09:48:13.263Z,70.22
2019-01-28T09:50:42.919Z,69.64
2019-01-28T09:53:14.064Z,69.60
2019-01-28T09:55:43.698Z,70.10
2019-01-28T09:58:13.403Z,69.65
2019-01-28T10:00:47.029Z,69.63
2019-01-28T10:03:17.026Z,69.62
2019-01-28T10:05:47.030Z,69.23
2019-01-28T10:08:16.579Z,69.12
2019-01-28T10:10:46.507Z,69.39
2019-01-28T10:13:15.894Z,69.41
2019-01-28T10:15:45.269Z,69.22
2019-01-28T10:18:14.979Z,69.32
2019-01-28T10:20:46.698Z,69.15
2019-01-28T10:23:16.452Z,69.13
2019-01-28T10:25:46.142Z,69.20
2019-01-28T10:28:15.627Z,69.26
2019-01-28T10:30:45.916Z,69.54
2019-01-28T10:33:15.350Z,69.00
2019-01-28T10:35:46.188Z,68.38
2019-01-28T10:38:16.407Z,68.28
2019-01-28T10:40:46.758Z,68.83
2019-01-28T10:43:16.189Z,68.59
2019-01-28T10:45:45.711Z,68.45
2019-01-28T10:48:15.354Z,68.79
2019-01-28T10:50:45.201Z,69.08
2019-01-28T10:53:14.714Z,68.35
2019-01-28T10:55:44.536Z,68.79
2019-01-28T10:58:13.903Z,69.47
2019-01-28T11:00:46.108Z,69.27
2019-01-28T11:03:17.312Z,68.17
2019-01-28T11:05:46.684Z,69.35
2019-01-28T11:08:16.859Z,70.06
2019-01-28T11:10:46.410Z,70.53
2019-01-28T11:13:15.985Z,70.49
2019-01-28T11:15:45.756Z,70.27
2019-01-28T11:18:18.432Z,69.68
2019-01-28T11:20:47.932Z,70.12
2019-01-28T11:23:17.432Z,70.08
2019-01-28T11:25:47.042Z,69.33
2019-01-28T11:28:16.469Z,70.00
2019-01-28T11:30:51.276Z,70.31
2019-01-28T11:33:20.879Z,69.53
2019-01-28T11:35:50.434Z,69.43
2019-01-28T11:38:21.148Z,69.77
2019-01-28T11:40:50.583Z,70.29
2019-01-28T11:43:20.117Z,70.26
2019-01-28T11:45:55.200Z,69.97
2019-01-28T11:48:24.705Z,70.47
2019-01-28T11:50:56.111Z,69.07
2019-01-28T11:53:30.486Z,69.18
2019-01-28T11:56:00.317Z,68.70
2019-01-28T11:58:29.785Z,68.77
2019-01-28T12:01:30.633Z,68.53
2019-01-28T12:04:00.421Z,68.53
2019-01-28T12:06:29.788Z,68.28
2019-01-28T12:08:59.475Z,68.07
2019-01-28T12:11:28.846Z,67.58
2019-01-28T12:13:59.746Z,67.85
2019-01-28T12:16:29.342Z,67.91
2019-01-28T12:18:58.830Z,67.13
2019-01-28T12:21:28.530Z,66.94
2019-01-28T12:23:58.120Z,66.40
2019-01-28T12:26:27.705Z,67.49
2019-01-28T12:28:57.352Z,67.22
2019-01-28T12:31:26.725Z,67.57
2019-01-28T12:33:56.174Z,67.14
2019-01-28T12:36:25.753Z,67.15
2019-01-28T12:38:55.340Z,67.18
2019-01-28T12:41:24.831Z,67.35
2019-01-28T12:43:55.022Z,67.84
2019-01-28T12:46:25.065Z,67.83
2019-01-28T12:48:54.538Z,67.35
2019-01-28T12:51:24.031Z,67.19
2019-01-28T12:53:53.556Z,67.51
2019-01-28T12:56:23.164Z,67.49
2019-01-28T12:58:52.571Z,67.78
2019-01-28T13:01:22.180Z,67.68
2019-01-28T13:03:51.874Z,68.08
2019-01-28T13:06:22.816Z,68.56
2019-01-28T13:08:52.492Z,68.82
2019-01-28T13:11:22.106Z,70.11
2019-01-28T13:13:51.771Z,71.44
2019-01-28T13:16:21.305Z,72.33
2019-01-28T13:18:50.701Z,71.70
2019-01-28T13:21:22.202Z,71.32
2019-01-28T13:23:52.102Z,71.39
2019-01-28T13:26:21.575Z,71.83
2019-01-28T13:28:51.222Z,71.54
2019-01-28T13:31:20.685Z,71.18
2019-01-28T13:33:50.403Z,71.81
2019-01-28T13:36:19.874Z,71.72
2019-01-28T13:38:49.367Z,72.04
2019-01-28T13:41:18.767Z,71.95
2019-01-28T13:43:48.232Z,72.12
2019-01-28T13:46:17.713Z,71.53
2019-01-28T13:48:47.181Z,72.24
2019-01-28T13:51:16.896Z,72.86
2019-01-28T13:53:46.383Z,72.63
2019-01-28T13:56:15.876Z,72.53
2019-01-28T13:58:45.374Z,72.26
2019-01-28T14:01:14.777Z,72.29
2019-01-28T14:03:44.221Z,72.79
2019-01-28T14:06:13.664Z,73.04
2019-01-28T14:08:43.805Z,73.40
2019-01-28T14:11:13.326Z,74.19
2019-01-28T14:13:43.009Z,74.09
2019-01-28T14:16:12.576Z,75.49
2019-01-28T14:18:42.071Z,75.79
2019-01-28T14:21:11.591Z,76.26
2019-01-28T14:23:41.063Z,76.54
2019-01-28T14:26:11.041Z,77.19
2019-01-28T14:28:40.711Z,77.41
2019-01-28T14:31:10.597Z,77.93
2019-01-28T14:33:40.104Z,79.06
2019-01-28T14:36:09.809Z,79.28
2019-01-28T14:38:39.464Z,79.68
2019-01-28T14:41:09.009Z,80.21
2019-01-28T14:43:38.488Z,79.49
2019-01-28T14:46:08.006Z,80.88
2019-01-28T14:48:37.483Z,80.21
2019-01-28T14:51:07.440Z,81.26
2019-01-28T14:53:36.943Z,81.79
2019-01-28T14:56:07.114Z,81.72
2019-01-28T14:58:36.666Z,81.79
2019-01-28T15:01:06.601Z,82.03
2019-01-28T15:03:36.107Z,83.08
2019-01-28T15:06:05.765Z,83.88
2019-01-28T15:08:35.354Z,83.96
2019-01-28T15:11:05.752Z,84.01
2019-01-28T15:13:35.618Z,83.82
2019-01-28T15:16:09.027Z,83.17
2019-01-28T15:18:36.946Z,82.23
2019-01-28T15:21:07.425Z,82.73
2019-01-28T15:23:41.371Z,83.06
2019-01-28T15:26:10.915Z,83.40
2019-01-28T15:28:41.070Z,83.10
2019-01-28T15:31:11.961Z,82.79
2019-01-28T15:33:41.485Z,82.55
2019-01-28T15:36:11.019Z,82.35
2019-01-28T15:38:40.514Z,81.96
2019-01-28T15:41:09.983Z,81.99
2019-01-28T15:43:39.687Z,82.94
2019-01-28T15:46:09.161Z,83.48
2019-01-28T15:48:38.653Z,83.45
2019-01-28T15:51:08.215Z,83.34
2019-01-28T15:53:37.689Z,83.66
2019-01-28T15:56:07.400Z,83.12
2019-01-28T15:58:36.976Z,82.83
2019-01-28T16:01:06.815Z,82.97
2019-01-28T16:03:36.292Z,82.75
2019-01-28T16:06:05.963Z,82.57
2019-01-28T16:08:35.469Z,82.11
2019-01-28T16:11:05.357Z,81.57
2019-01-28T16:13:35.009Z,81.79
2019-01-28T16:16:05.017Z,81.29
2019-01-28T16:18:34.937Z,80.77
2019-01-28T16:21:04.979Z,80.52
2019-01-28T16:23:34.464Z,80.15
2019-01-28T16:26:03.960Z,79.90
2019-01-28T16:28:33.552Z,79.75
2019-01-28T16:31:03.080Z,80.42
2019-01-28T16:33:32.732Z,80.63
2019-01-28T16:36:02.338Z,80.17
2019-01-28T16:38:31.787Z,80.77
2019-01-28T16:41:01.445Z,80.19
2019-01-28T16:43:30.955Z,80.81
2019-01-28T16:46:00.438Z,80.88
2019-01-28T16:48:30.125Z,81.37
2019-01-28T16:50:59.590Z,80.77
2019-01-28T16:53:29.230Z,81.12
2019-01-28T16:55:58.925Z,81.20
2019-01-28T16:58:29.345Z,81.22
2019-01-28T17:00:58.840Z,81.29
2019-01-28T17:03:28.591Z,81.54
2019-01-28T17:05:58.189Z,81.44
2019-01-28T17:08:27.666Z,81.94
2019-01-28T17:10:57.169Z,81.87
2019-01-28T17:13:27.003Z,82.00
2019-01-28T17:15:56.463Z,83.29
2019-01-28T17:18:26.165Z,83.70
2019-01-28T17:20:55.685Z,84.41
2019-01-28T17:23:25.178Z,84.24
2019-01-28T17:25:54.713Z,84.60
2019-01-28T17:28:24.198Z,84.92
2019-01-28T17:30:53.685Z,85.51
2019-01-28T17:33:23.178Z,85.67
2019-01-28T17:35:52.695Z,85.50
2019-01-28T17:38:22.183Z,84.61
2019-01-28T17:40:51.671Z,84.64
2019-01-28T17:43:21.191Z,83.78
2019-01-28T17:45:50.751Z,83.62
2019-01-28T17:48:21.008Z,84.50
2019-01-28T17:50:50.529Z,84.37
2019-01-28T17:53:20.518Z,84.34
2019-01-28T17:55:51.826Z,84.39
2019-01-28T17:58:21.268Z,84.30
2019-01-28T18:01:09.615Z,83.97
2019-01-28T18:03:39.078Z,84.01
2019-01-28T18:06:08.576Z,84.64
2019-01-28T18:08:38.053Z,84.78
2019-01-28T18:11:07.820Z,84.75
2019-01-28T18:13:37.286Z,84.70
2019-01-28T18:16:07.271Z,84.22
2019-01-28T18:18:36.812Z,84.05
2019-01-28T18:21:06.462Z,84.62
2019-01-28T18:23:45.997Z,84.39
2019-01-28T18:26:15.858Z,84.42
2019-01-28T18:28:45.501Z,85.14
2019-01-28T18:31:14.984Z,85.22
2019-01-28T18:33:44.612Z,84.61
2019-01-28T18:36:14.482Z,84.73
2019-01-28T18:38:44.053Z,84.83
2019-01-28T18:41:13.924Z,85.50
2019-01-28T18:43:43.418Z,84.87
2019-01-28T18:46:13.059Z,85.20
2019-01-28T18:48:42.542Z,85.36
2019-01-28T18:51:12.806Z,85.02
2019-01-28T18:53:42.365Z,84.94
2019-01-28T18:56:11.925Z,85.12
2019-01-28T18:58:41.419Z,84.62
2019-01-28T19:01:12.210Z,84.77
2019-01-28T19:03:42.230Z,84.85
2019-01-28T19:06:36.949Z,84.45
2019-01-28T19:09:16.352Z,84.93
2019-01-28T19:12:00.909Z,85.07
2019-01-28T19:14:52.223Z,84.58
2019-01-28T19:17:43.885Z,84.08
2019-01-28T19:20:25.239Z,83.76
2019-01-28T19:23:04.340Z,84.49
2019-01-28T19:25:33.970Z,85.43
2019-01-28T19:28:03.433Z,85.12
2019-01-28T19:30:32.920Z,85.13
2019-01-28T19:33:02.503Z,85.10
2019-01-28T19:35:31.994Z,85.00
2019-01-28T19:38:01.510Z,84.85
2019-01-28T19:40:30.974Z,84.22
2019-01-28T19:43:00.448Z,84.42
2019-01-28T19:45:30.003Z,84.71
2019-01-28T19:47:59.775Z,85.08
2019-01-28T19:50:29.369Z,85.16
2019-01-28T19:52:59.069Z,84.96
2019-01-28T19:55:28.803Z,84.83
2019-01-28T19:57:58.472Z,84.67
2019-01-28T20:00:29.121Z,85.08
2019-01-28T20:03:01.173Z,85.26
2019-01-28T20:05:30.849Z,84.96
2019-01-28T20:08:00.322Z,84.73
2019-01-28T20:10:29.988Z,85.03
2019-01-28T20:12:59.497Z,85.16
2019-01-28T20:15:29.060Z,85.88
2019-01-28T20:17:58.604Z,85.64
2019-01-28T20:20:28.551Z,85.49
2019-01-28T20:22:58.111Z,85.30
2019-01-28T20:25:27.623Z,85.24
2019-01-28T20:27:57.150Z,84.87
2019-01-28T20:30:27.786Z,85.02
2019-01-28T20:32:57.256Z,84.93
2019-01-28T20:35:26.889Z,84.59
2019-01-28T20:37:56.398Z,84.75
2019-01-28T20:40:25.915Z,84.96
2019-01-28T20:42:55.501Z,84.55
2019-01-28T20:45:25.971Z,84.06
2019-01-28T20:47:55.704Z,84.72
2019-01-28T20:50:26.943Z,84.79
2019-01-28T20:52:56.972Z,85.15
2019-01-28T20:55:26.709Z,85.48
2019-01-28T20:57:56.500Z,85.21
2019-01-28T21:00:27.071Z,85.47
2019-01-28T21:02:56.514Z,85.10
2019-01-28T21:05:26.683Z,84.52
2019-01-28T21:07:56.957Z,84.93
2019-01-28T21:10:26.819Z,84.97
2019-01-28T21:12:56.449Z,85.05
2019-01-28T21:15:25.970Z,84.81
2019-01-28T21:17:55.424Z,84.60
2019-01-28T21:20:25.259Z,83.97
2019-01-28T21:22:54.858Z,84.08
2019-01-28T21:25:25.444Z,83.55
2019-01-28T21:27:55.041Z,83.23
2019-01-28T21:30:27.281Z,83.67
2019-01-28T21:32:56.813Z,83.81
2019-01-28T21:35:44.302Z,83.53
2019-01-28T21:38:17.239Z,82.75
2019-01-28T21:40:46.764Z,82.27
2019-01-28T21:43:16.452Z,82.66
2019-01-28T21:45:46.062Z,82.30
2019-01-28T21:48:15.585Z,81.97
2019-01-28T21:50:45.088Z,81.23
2019-01-28T21:53:14.950Z,81.67
2019-01-28T21:55:44.413Z,82.03
2019-01-28T21:58:13.866Z,82.28
2019-01-28T22:00:43.355Z,82.59
2019-01-28T22:03:12.824Z,83.02
2019-01-28T22:05:43.033Z,83.21
2019-01-28T22:08:12.634Z,83.34
2019-01-28T22:10:42.303Z,83.23
2019-01-28T22:13:11.784Z,83.04
2019-01-28T22:15:41.372Z,83.36
2019-01-28T22:18:10.878Z,83.60
2019-01-28T22:20:40.373Z,84.01
2019-01-28T22:23:09.921Z,83.67
2019-01-28T22:25:39.383Z,83.80
2019-01-28T22:28:08.975Z,83.09
2019-01-28T22:30:38.526Z,82.62
2019-01-28T22:33:08.969Z,82.79
2019-01-28T22:35:38.508Z,82.13
2019-01-28T22:38:07.970Z,82.03
2019-01-28T22:40:37.453Z,81.55
2019-01-28T22:43:07.058Z,81.62
2019-01-28T22:45:36.569Z,81.66
2019-01-28T22:48:06.347Z,81.93
2019-01-28T22:50:35.805Z,81.01
2019-01-28T22:53:05.465Z,80.77
2019-01-28T22:55:36.620Z,80.06
2019-01-28T22:58:06.588Z,79.90
2019-01-28T23:01:23.184Z,79.93
2019-01-28T23:03:52.660Z,79.86
2019-01-28T23:06:22.177Z,79.36
2019-01-28T23:08:51.687Z,79.26
2019-01-28T23:11:21.191Z,79.50
2019-01-28T23:13:50.761Z,79.02
2019-01-28T23:16:20.316Z,78.28
2019-01-28T23:18:49.850Z,78.29
2019-01-28T23:21:19.394Z,78.26
2019-01-28T23:23:49.083Z,77.92
2019-01-28T23:26:18.656Z,77.53
2019-01-28T23:28:48.164Z,77.36
2019-01-28T23:31:17.670Z,77.41
2019-01-28T23:33:47.150Z,77.67
2019-01-28T23:36:16.716Z,77.76
2019-01-28T23:38:46.280Z,78.11
2019-01-28T23:41:15.752Z,77.82
2019-01-28T23:43:45.236Z,77.83
2019-01-28T23:46:14.713Z,78.23
2019-01-28T23:48:44.621Z,78.14
2019-01-28T23:51:14.144Z,78.03
2019-01-28T23:53:43.766Z,78.37
2019-01-28T23:56:13.328Z,78.60
2019-01-28T23:58:42.793Z,77.94
